createdAt,value
2023-04-10T00:00:33.097Z,12.75
2023-04-10T00:03:04.290Z,13.23
2023-04-10T00:05:31.657Z,13.88
2023-04-10T00:07:58.692Z,13.60
2023-04-10T00:10:26.721Z,13.30
2023-04-10T00:12:54.264Z,13.27
2023-04-10T00:15:21.454Z,15.20
2023-04-10T00:17:50.775Z,12.77
2023-04-10T00:20:17.929Z,14.32
2023-04-10T00:22:44.981Z,13.25
2023-04-10T00:25:12.024Z,14.52
2023-04-10T00:27:39.003Z,14.23
2023-04-10T00:30:06.823Z,14.90
2023-04-10T00:32:33.848Z,15.52
2023-04-10T00:35:01.649Z,15.65
2023-04-10T00:37:28.821Z,16.38
2023-04-10T00:39:56.406Z,13.90
2023-04-10T00:42:23.490Z,14.63
2023-04-10T00:44:50.583Z,15.93
2023-04-10T00:47:17.825Z,14.82
2023-04-10T00:49:45.589Z,15.23
2023-04-10T00:52:12.951Z,14.68
2023-04-10T00:54:40.392Z,14.48
2023-04-10T00:57:07.735Z,15.05
2023-04-10T00:59:35.957Z,15.85
2023-04-10T01:02:03.474Z,14.60
2023-04-10T01:04:32.145Z,14.55
2023-04-10T01:07:19.078Z,13.80
2023-04-10T01:09:56.661Z,13.52
2023-04-10T01:12:46.882Z,14.20
2023-04-10T01:15:18.798Z,14.63
2023-04-10T01:18:03.701Z,15.23
2023-04-10T01:20:34.944Z,13.85
2023-04-10T01:23:14.209Z,13.57
2023-04-10T01:25:59.421Z,14.07
2023-04-10T01:28:51.710Z,14.77
2023-04-10T01:31:51.098Z,13.10
2023-04-10T01:34:29.856Z,14.90
2023-04-10T01:37:02.364Z,14.95
2023-04-10T01:39:31.450Z,13.02
2023-04-10T01:42:00.108Z,14.07
2023-04-10T01:44:31.911Z,14.05
2023-04-10T01:47:00.209Z,13.35
2023-04-10T01:49:30.632Z,15.20
2023-04-10T01:52:00.479Z,14.25
2023-04-10T01:54:32.890Z,16.15
2023-04-10T01:57:04.892Z,15.20
2023-04-10T01:59:31.945Z,14.48
2023-04-10T02:02:00.999Z,16.13
2023-04-10T02:04:28.399Z,15.93
2023-04-10T02:07:11.636Z,14.73
2023-04-10T02:10:04.761Z,13.70
2023-04-10T02:12:39.069Z,15.75
2023-04-10T02:15:08.671Z,15.02
2023-04-10T02:17:42.970Z,14.52
2023-04-10T02:20:11.307Z,14.57
2023-04-10T02:22:41.342Z,14.20
2023-04-10T02:25:08.866Z,14.52
2023-04-10T02:27:37.293Z,13.60
2023-04-10T02:30:05.144Z,12.68
2023-04-10T02:32:33.530Z,13.63
2023-04-10T02:35:02.222Z,15.05
2023-04-10T02:37:29.713Z,15.10
2023-04-10T02:39:56.843Z,13.65
2023-04-10T02:42:23.847Z,13.13
2023-04-10T02:44:50.848Z,14.40
2023-04-10T02:47:18.902Z,14.60
2023-04-10T02:49:46.002Z,13.32
2023-04-10T02:52:13.146Z,12.30
2023-04-10T02:54:40.764Z,14.32
2023-04-10T02:57:08.013Z,14.80
2023-04-10T02:59:35.031Z,14.35
2023-04-10T03:02:02.164Z,14.10
2023-04-10T03:04:31.736Z,13.90
2023-04-10T03:06:59.513Z,11.90
2023-04-10T03:09:26.719Z,13.65
2023-04-10T03:11:53.672Z,12.88
2023-04-10T03:14:21.016Z,13.00
2023-04-10T03:16:48.105Z,11.85
2023-04-10T03:19:15.120Z,11.70
2023-04-10T03:21:42.403Z,12.02
2023-04-10T03:24:09.393Z,13.82
2023-04-10T03:26:36.429Z,11.65
2023-04-10T03:29:03.859Z,12.00
2023-04-10T03:31:31.127Z,12.25
2023-04-10T03:33:58.434Z,11.45
2023-04-10T03:36:25.662Z,11.80
2023-04-10T03:38:53.007Z,11.98
2023-04-10T03:41:20.079Z,12.23
2023-04-10T03:43:47.097Z,12.50
2023-04-10T03:46:14.082Z,11.95
2023-04-10T03:48:41.535Z,13.45
2023-04-10T03:51:08.584Z,11.25
2023-04-10T03:53:36.406Z,12.52
2023-04-10T03:56:04.182Z,12.82
2023-04-10T03:58:31.172Z,12.18
2023-04-10T04:00:58.345Z,11.60
2023-04-10T04:03:25.697Z,11.73
2023-04-10T04:05:52.826Z,10.85
2023-04-10T04:08:19.773Z,12.15
2023-04-10T04:10:46.851Z,11.15
2023-04-10T04:13:13.825Z,11.35
2023-04-10T04:15:41.192Z,11.35
2023-04-10T04:18:09.175Z,10.98
2023-04-10T04:20:36.396Z,11.23
2023-04-10T04:23:03.334Z,11.10
2023-04-10T04:25:30.465Z,10.27
2023-04-10T04:27:57.878Z,11.35
2023-04-10T04:30:24.943Z,9.63
2023-04-10T04:32:51.919Z,11.50
2023-04-10T04:35:18.985Z,11.20
2023-04-10T04:37:46.234Z,10.65
2023-04-10T04:40:13.248Z,11.25
2023-04-10T04:42:40.268Z,11.48
2023-04-10T04:45:08.164Z,12.38
2023-04-10T04:47:35.318Z,12.02
2023-04-10T04:50:02.707Z,12.38
2023-04-10T04:52:29.688Z,11.73
2023-04-10T04:54:56.836Z,11.10
2023-04-10T04:57:23.822Z,11.70
2023-04-10T04:59:50.828Z,11.27
2023-04-10T05:02:19.012Z,10.32
2023-04-10T05:04:46.194Z,13.13
2023-04-10T05:07:13.123Z,13.15
2023-04-10T05:09:40.398Z,12.30
2023-04-10T05:12:07.425Z,11.50
2023-04-10T05:14:34.459Z,11.63
2023-04-10T05:17:03.379Z,11.30
2023-04-10T05:19:30.673Z,11.10
2023-04-10T05:21:57.677Z,10.00
2023-04-10T05:24:24.715Z,11.43
2023-04-10T05:26:51.846Z,11.32
2023-04-10T05:29:18.840Z,11.20
2023-04-10T05:31:45.808Z,10.77
2023-04-10T05:34:12.760Z,11.50
2023-04-10T05:36:39.762Z,10.80
2023-04-10T05:39:06.835Z,10.10
2023-04-10T05:41:33.813Z,10.93
2023-04-10T05:44:00.935Z,9.65
2023-04-10T05:46:28.047Z,9.98
2023-04-10T05:48:55.299Z,11.65
2023-04-10T05:51:22.553Z,9.95
2023-04-10T05:53:50.842Z,11.88
2023-04-10T05:56:18.005Z,10.05
2023-04-10T05:58:45.026Z,11.60
2023-04-10T06:01:13.611Z,11.70
2023-04-10T06:03:40.833Z,12.02
2023-04-10T06:06:08.300Z,11.65
2023-04-10T06:08:35.447Z,12.57
2023-04-10T06:11:02.462Z,12.05
2023-04-10T06:13:29.661Z,11.70
2023-04-10T06:15:56.787Z,11.27
2023-04-10T06:18:23.775Z,12.88
2023-04-10T06:20:50.746Z,11.52
2023-04-10T06:23:17.796Z,11.63
2023-04-10T06:25:44.903Z,10.25
2023-04-10T06:28:11.993Z,11.57
2023-04-10T06:30:39.076Z,11.07
2023-04-10T06:33:06.371Z,10.05
2023-04-10T06:35:34.102Z,11.10
2023-04-10T06:38:01.318Z,10.02
2023-04-10T06:40:29.617Z,10.57
2023-04-10T06:42:57.066Z,11.00
2023-04-10T06:45:24.070Z,10.15
2023-04-10T06:47:51.626Z,10.55
2023-04-10T06:50:18.975Z,11.65
2023-04-10T06:52:47.898Z,10.88
2023-04-10T06:55:14.974Z,12.55
2023-04-10T06:57:42.154Z,10.45
2023-04-10T07:00:09.723Z,10.88
2023-04-10T07:02:36.778Z,12.48
2023-04-10T07:05:03.981Z,10.85
2023-04-10T07:07:31.681Z,10.88
2023-04-10T07:09:58.752Z,11.02
2023-04-10T07:12:26.813Z,12.90
2023-04-10T07:14:53.815Z,13.15
2023-04-10T07:17:22.342Z,13.55
2023-04-10T07:19:49.376Z,14.38
2023-04-10T07:22:16.631Z,15.18
2023-04-10T07:24:44.377Z,14.68
2023-04-10T07:27:13.004Z,14.15
2023-04-10T07:29:40.029Z,15.07
2023-04-10T07:32:07.472Z,14.45
2023-04-10T07:34:34.600Z,13.88
2023-04-10T07:37:01.716Z,13.80
2023-04-10T07:39:28.723Z,15.27
2023-04-10T07:41:55.930Z,14.35
2023-04-10T07:44:22.941Z,14.82
2023-04-10T07:46:52.086Z,14.75
2023-04-10T07:49:19.071Z,13.88
2023-04-10T07:51:46.132Z,14.15
2023-04-10T07:54:13.171Z,15.82
2023-04-10T07:56:40.143Z,14.15
2023-04-10T07:59:07.161Z,16.02
2023-04-10T08:01:34.293Z,14.65
2023-04-10T08:04:04.757Z,15.73
2023-04-10T08:06:32.910Z,14.70
2023-04-10T08:08:59.974Z,16.52
2023-04-10T08:11:33.213Z,15.98
2023-04-10T08:14:02.327Z,18.13
2023-04-10T08:16:31.144Z,15.32
2023-04-10T08:18:59.723Z,16.05
2023-04-10T08:21:28.482Z,15.88
2023-04-10T08:23:57.341Z,14.60
2023-04-10T08:26:26.518Z,17.08
2023-04-10T08:28:56.466Z,16.33
2023-04-10T08:31:25.628Z,16.42
2023-04-10T08:33:53.076Z,14.40
2023-04-10T08:36:20.727Z,14.45
2023-04-10T08:38:48.284Z,14.93
2023-04-10T08:41:17.082Z,17.80
2023-04-10T08:43:45.758Z,16.00
2023-04-10T08:46:14.465Z,16.58
2023-04-10T08:48:47.823Z,15.48
2023-04-10T08:51:20.614Z,16.52
2023-04-10T08:53:58.429Z,15.88
2023-04-10T08:56:26.269Z,16.83
2023-04-10T08:58:53.758Z,18.83
2023-04-10T09:01:21.678Z,18.58
2023-04-10T09:03:49.218Z,16.80
2023-04-10T09:06:16.336Z,18.15
2023-04-10T09:08:43.314Z,18.38
2023-04-10T09:11:13.481Z,17.52
2023-04-10T09:13:42.435Z,17.27
2023-04-10T09:16:10.752Z,16.13
2023-04-10T09:18:51.543Z,16.55
2023-04-10T09:21:22.105Z,16.83
2023-04-10T09:23:59.739Z,16.98
2023-04-10T09:26:29.478Z,17.17
2023-04-10T09:29:07.368Z,17.75
2023-04-10T09:31:36.412Z,16.92
2023-04-10T09:34:23.506Z,16.98
2023-04-10T09:36:56.209Z,16.55
2023-04-10T09:39:43.397Z,16.45
2023-04-10T09:42:15.086Z,16.73
2023-04-10T09:44:43.074Z,17.30
2023-04-10T09:47:21.841Z,19.10
2023-04-10T09:49:54.699Z,16.63
2023-04-10T09:52:27.341Z,18.77
2023-04-10T09:54:59.621Z,18.25
2023-04-10T09:57:31.842Z,17.88
2023-04-10T10:00:01.263Z,19.88
2023-04-10T10:02:31.364Z,16.42
2023-04-10T10:05:02.438Z,17.15
2023-04-10T10:07:30.993Z,17.77
2023-04-10T10:09:59.076Z,19.40
2023-04-10T10:12:44.585Z,17.00
2023-04-10T10:15:23.303Z,17.75
2023-04-10T10:18:02.616Z,17.80
2023-04-10T10:20:33.608Z,16.95
2023-04-10T10:23:08.349Z,18.25
2023-04-10T10:25:36.838Z,16.98
2023-04-10T10:28:04.909Z,17.90
2023-04-10T10:30:36.101Z,19.63
2023-04-10T10:33:07.742Z,18.70
2023-04-10T10:35:38.228Z,20.58
2023-04-10T10:38:06.495Z,19.75
2023-04-10T10:40:45.576Z,19.02
2023-04-10T10:43:28.076Z,17.90
2023-04-10T10:46:02.653Z,17.25
2023-04-10T10:48:29.820Z,19.00
2023-04-10T10:51:00.749Z,19.05
2023-04-10T10:53:45.177Z,18.27
2023-04-10T10:56:22.994Z,18.77
2023-04-10T10:58:53.155Z,18.25
2023-04-10T11:01:21.945Z,18.45
2023-04-10T11:03:49.998Z,18.48
2023-04-10T11:06:19.851Z,18.63
2023-04-10T11:08:53.720Z,20.02
2023-04-10T11:11:28.043Z,19.25
2023-04-10T11:13:57.817Z,18.45
2023-04-10T11:16:44.086Z,17.50
2023-04-10T11:19:20.001Z,18.27
2023-04-10T11:22:08.644Z,19.20
2023-04-10T11:24:58.390Z,19.50
2023-04-10T11:27:47.805Z,19.13
2023-04-10T11:30:35.323Z,18.23
2023-04-10T11:33:04.556Z,17.60
2023-04-10T11:35:32.913Z,18.70
2023-04-10T11:38:18.125Z,18.27
2023-04-10T11:40:55.669Z,17.70
2023-04-10T11:43:22.778Z,18.90
2023-04-10T11:45:49.925Z,17.65
2023-04-10T11:48:17.539Z,17.33
2023-04-10T11:50:44.759Z,18.25
2023-04-10T11:53:20.274Z,19.65
2023-04-10T11:55:47.703Z,17.75
2023-04-10T11:58:32.191Z,19.88
2023-04-10T12:01:04.181Z,18.90
2023-04-10T12:03:42.329Z,17.98
2023-04-10T12:06:13.626Z,17.50
2023-04-10T12:08:43.247Z,16.70
2023-04-10T12:11:11.179Z,17.70
2023-04-10T12:13:38.992Z,18.88
2023-04-10T12:16:10.781Z,19.60
2023-04-10T12:18:38.394Z,17.70
2023-04-10T12:21:08.189Z,18.53
2023-04-10T12:23:41.127Z,16.73
2023-04-10T12:26:18.860Z,18.10
2023-04-10T12:28:55.970Z,18.80
2023-04-10T12:31:33.987Z,17.50
2023-04-10T12:34:02.321Z,16.87
2023-04-10T12:36:31.016Z,17.40
2023-04-10T12:38:59.426Z,17.10
2023-04-10T12:41:29.760Z,16.70
2023-04-10T12:44:14.164Z,17.00
2023-04-10T12:46:43.238Z,17.63
2023-04-10T12:49:15.625Z,17.87
2023-04-10T12:51:51.351Z,19.13
2023-04-10T12:54:32.077Z,18.33
2023-04-10T12:56:59.550Z,17.67
2023-04-10T12:59:27.078Z,17.53
2023-04-10T13:01:54.847Z,16.93
2023-04-10T13:04:23.081Z,17.63
2023-04-10T13:06:53.030Z,18.23
2023-04-10T13:09:20.465Z,17.60
2023-04-10T13:11:48.565Z,17.30
2023-04-10T13:14:17.935Z,17.00
2023-04-10T13:16:45.066Z,17.30
2023-04-10T13:19:13.051Z,17.97
2023-04-10T13:21:40.114Z,18.10
2023-04-10T13:24:07.180Z,17.47
2023-04-10T13:26:34.216Z,16.80
2023-04-10T13:29:01.254Z,17.30
2023-04-10T13:31:28.244Z,16.30
2023-04-10T13:33:55.366Z,16.70
2023-04-10T13:36:22.528Z,17.40
2023-04-10T13:38:49.541Z,16.30
2023-04-10T13:41:16.619Z,16.07
2023-04-10T13:43:43.630Z,16.80
2023-04-10T13:46:10.650Z,15.57
2023-04-10T13:48:41.473Z,15.60
2023-04-10T13:51:09.045Z,15.77
2023-04-10T13:53:36.192Z,14.87
2023-04-10T13:56:03.220Z,15.93
2023-04-10T13:58:32.383Z,17.43
2023-04-10T14:00:59.781Z,15.07
2023-04-10T14:03:27.104Z,15.27
2023-04-10T14:05:54.637Z,16.00
2023-04-10T14:08:21.647Z,15.27
2023-04-10T14:10:50.996Z,14.90
2023-04-10T14:13:18.763Z,12.83
2023-04-10T14:15:46.303Z,14.63
2023-04-10T14:18:14.971Z,15.57
2023-04-10T14:20:42.520Z,14.05
2023-04-10T14:23:09.948Z,14.93
2023-04-10T14:25:36.979Z,14.33
2023-04-10T14:28:03.997Z,14.53
2023-04-10T14:30:32.814Z,15.13
2023-04-10T14:32:59.968Z,15.18
2023-04-10T14:35:27.140Z,14.88
2023-04-10T14:37:54.422Z,13.88
2023-04-10T14:40:21.488Z,13.77
2023-04-10T14:42:48.462Z,14.20
2023-04-10T14:45:15.426Z,13.55
2023-04-10T14:47:42.644Z,14.13
2023-04-10T14:50:09.966Z,12.20
2023-04-10T14:52:37.179Z,14.55
2023-04-10T14:55:04.640Z,14.68
2023-04-10T14:57:31.674Z,13.67
2023-04-10T15:00:01.452Z,14.47
2023-04-10T15:02:30.093Z,14.77
2023-04-10T15:04:57.432Z,14.53
2023-04-10T15:07:24.707Z,14.60
2023-04-10T15:09:56.222Z,13.53
2023-04-10T15:12:24.889Z,13.43
2023-04-10T15:14:52.426Z,12.93
2023-04-10T15:17:22.624Z,13.50
2023-04-10T15:19:50.062Z,13.67
2023-04-10T15:22:17.134Z,14.90
2023-04-10T15:24:50.645Z,13.90
2023-04-10T15:27:20.639Z,13.27
2023-04-10T15:29:47.761Z,13.30
2023-04-10T15:32:14.779Z,13.63
2023-04-10T15:34:41.837Z,13.93
2023-04-10T15:37:08.908Z,13.87
2023-04-10T15:39:37.377Z,13.97
2023-04-10T15:42:06.126Z,15.50
2023-04-10T15:44:33.300Z,13.13
2023-04-10T15:47:00.407Z,15.00
2023-04-10T15:49:36.925Z,15.77
2023-04-10T15:52:08.639Z,13.50
2023-04-10T15:54:35.892Z,13.70
2023-04-10T15:57:03.854Z,13.40
2023-04-10T15:59:31.072Z,13.50
2023-04-10T16:01:58.184Z,13.73
2023-04-10T16:04:25.390Z,12.73
2023-04-10T16:06:52.507Z,12.70
2023-04-10T16:09:25.293Z,12.30
2023-04-10T16:11:54.364Z,13.10
2023-04-10T16:14:22.612Z,13.03
2023-04-10T16:16:50.229Z,12.77
2023-04-10T16:19:17.306Z,12.87
2023-04-10T16:21:44.457Z,13.40
2023-04-10T16:24:11.519Z,13.70
2023-04-10T16:26:38.534Z,14.30
2023-04-10T16:29:06.615Z,11.87
2023-04-10T16:31:33.796Z,12.60
2023-04-10T16:34:01.520Z,13.30
2023-04-10T16:36:28.571Z,13.80
2023-04-10T16:38:56.001Z,13.07
2023-04-10T16:41:23.202Z,13.10
2023-04-10T16:43:50.355Z,12.47
2023-04-10T16:46:17.484Z,14.73
2023-04-10T16:48:44.705Z,13.30
2023-04-10T16:51:18.852Z,13.10
2023-04-10T16:53:45.943Z,12.82
2023-04-10T16:56:13.105Z,12.30
2023-04-10T16:58:42.120Z,13.13
2023-04-10T17:01:18.204Z,12.32
2023-04-10T17:03:47.833Z,13.52
2023-04-10T17:06:16.464Z,13.95
2023-04-10T17:08:44.201Z,14.30
2023-04-10T17:11:12.881Z,13.63
2023-04-10T17:13:41.407Z,16.10
2023-04-10T17:16:09.932Z,15.70
2023-04-10T17:18:37.087Z,16.20
2023-04-10T17:21:04.446Z,15.13
2023-04-10T17:23:31.471Z,15.63
2023-04-10T17:25:58.470Z,16.55
2023-04-10T17:28:25.490Z,20.33
2023-04-10T17:30:52.541Z,19.85
2023-04-10T17:33:21.860Z,19.17
2023-04-10T17:35:51.451Z,17.77
2023-04-10T17:38:20.589Z,19.42
2023-04-10T17:40:47.679Z,18.55
2023-04-10T17:43:14.786Z,16.38
2023-04-10T17:45:41.828Z,17.38
2023-04-10T17:48:10.514Z,16.23
2023-04-10T17:50:37.707Z,16.02
2023-04-10T17:53:04.739Z,13.30
2023-04-10T17:55:32.681Z,15.20
2023-04-10T17:57:59.750Z,14.73
2023-04-10T18:00:27.103Z,15.68
2023-04-10T18:03:00.131Z,12.88
2023-04-10T18:05:31.270Z,14.00
2023-04-10T18:07:58.671Z,13.48
2023-04-10T18:10:25.864Z,12.95
2023-04-10T18:12:53.550Z,15.75
2023-04-10T18:15:20.530Z,13.77
2023-04-10T18:17:47.636Z,13.40
2023-04-10T18:20:15.105Z,13.80
2023-04-10T18:22:42.239Z,13.95
2023-04-10T18:25:10.969Z,15.30
2023-04-10T18:27:51.568Z,14.70
2023-04-10T18:30:31.920Z,14.98
2023-04-10T18:32:58.956Z,17.77
2023-04-10T18:35:26.197Z,15.35
2023-04-10T18:37:53.422Z,17.83
2023-04-10T18:40:23.026Z,16.95
2023-04-10T18:42:50.354Z,15.55
2023-04-10T18:45:17.479Z,16.08
2023-04-10T18:47:44.741Z,16.50
2023-04-10T18:50:12.095Z,14.52
2023-04-10T18:52:39.315Z,16.90
2023-04-10T18:55:07.056Z,16.88
2023-04-10T18:57:34.568Z,16.85
2023-04-10T19:00:02.712Z,18.33
2023-04-10T19:02:30.131Z,15.85
2023-04-10T19:04:57.350Z,20.05
2023-04-10T19:07:24.397Z,20.73
2023-04-10T19:09:51.389Z,19.27
2023-04-10T19:12:18.424Z,20.75
2023-04-10T19:14:46.265Z,20.95
2023-04-10T19:17:13.332Z,20.95
2023-04-10T19:19:40.800Z,21.67
2023-04-10T19:22:07.890Z,19.38
2023-04-10T19:24:35.598Z,21.10
2023-04-10T19:27:02.798Z,22.63
2023-04-10T19:29:31.371Z,21.52
2023-04-10T19:31:58.672Z,20.73
2023-04-10T19:34:25.990Z,21.20
2023-04-10T19:36:53.641Z,20.13
2023-04-10T19:39:21.004Z,25.33
2023-04-10T19:41:48.234Z,22.25
2023-04-10T19:44:15.368Z,22.55
2023-04-10T19:46:42.706Z,23.10
2023-04-10T19:49:10.202Z,20.88
2023-04-10T19:51:37.237Z,23.02
2023-04-10T19:54:04.391Z,23.50
2023-04-10T19:56:31.938Z,21.80
2023-04-10T19:58:59.364Z,22.23
2023-04-10T20:01:26.716Z,23.30
2023-04-10T20:03:54.147Z,21.90
2023-04-10T20:06:22.054Z,22.60
2023-04-10T20:08:49.273Z,20.75
2023-04-10T20:11:16.574Z,23.20
2023-04-10T20:13:43.686Z,23.83
2023-04-10T20:16:10.860Z,22.70
2023-04-10T20:18:39.184Z,24.00
2023-04-10T20:21:08.036Z,22.52
2023-04-10T20:23:35.095Z,22.80
2023-04-10T20:26:02.133Z,24.40
2023-04-10T20:28:29.170Z,22.77
2023-04-10T20:30:56.193Z,22.50
2023-04-10T20:33:23.500Z,21.67
2023-04-10T20:35:50.637Z,21.05
2023-04-10T20:38:18.538Z,22.23
2023-04-10T20:40:45.774Z,22.45
2023-04-10T20:43:13.813Z,21.90
2023-04-10T20:45:41.817Z,21.17
2023-04-10T20:48:09.537Z,24.42
2023-04-10T20:50:37.309Z,21.35
2023-04-10T20:53:04.291Z,22.50
2023-04-10T20:55:31.328Z,20.58
2023-04-10T20:57:58.818Z,21.73
2023-04-10T21:00:25.952Z,22.55
2023-04-10T21:02:53.214Z,23.80
2023-04-10T21:05:20.409Z,23.27
2023-04-10T21:07:47.518Z,23.00
2023-04-10T21:10:14.586Z,22.00
2023-04-10T21:12:41.636Z,22.90
2023-04-10T21:15:09.273Z,21.80
2023-04-10T21:17:36.324Z,22.95
2023-04-10T21:20:04.370Z,22.38
2023-04-10T21:22:31.400Z,23.58
2023-04-10T21:24:58.518Z,24.70
2023-04-10T21:27:25.583Z,22.67
2023-04-10T21:29:52.654Z,25.05
2023-04-10T21:32:19.688Z,24.70
2023-04-10T21:34:46.817Z,25.35
2023-04-10T21:37:13.784Z,26.95
2023-04-10T21:39:41.575Z,23.27
2023-04-10T21:42:08.573Z,25.80
2023-04-10T21:44:35.760Z,26.08
2023-04-10T21:47:02.933Z,24.95
2023-04-10T21:49:29.955Z,24.85
2023-04-10T21:51:57.688Z,25.35
2023-04-10T21:54:24.796Z,24.35
2023-04-10T21:56:51.817Z,22.88
2023-04-10T21:59:18.826Z,25.55
2023-04-10T22:01:46.062Z,25.13
2023-04-10T22:04:13.466Z,24.02
2023-04-10T22:06:40.632Z,24.42
2023-04-10T22:09:07.675Z,24.40
2023-04-10T22:11:35.610Z,24.73
2023-04-10T22:14:15.366Z,24.70
2023-04-10T22:16:45.211Z,23.77
2023-04-10T22:19:12.222Z,21.33
2023-04-10T22:21:39.249Z,21.92
2023-04-10T22:24:06.521Z,20.85
2023-04-10T22:26:35.042Z,20.00
2023-04-10T22:29:04.057Z,22.30
2023-04-10T22:31:31.267Z,22.70
2023-04-10T22:33:58.336Z,24.45
2023-04-10T22:36:31.861Z,20.92
2023-04-10T22:38:58.814Z,23.08
2023-04-10T22:41:26.107Z,23.05
2023-04-10T22:43:53.136Z,22.13
2023-04-10T22:46:20.162Z,20.98
2023-04-10T22:48:47.382Z,22.35
2023-04-10T22:51:15.005Z,20.05
2023-04-10T22:53:42.124Z,21.48
2023-04-10T22:56:10.409Z,19.33
2023-04-10T22:58:39.561Z,19.17
2023-04-10T23:01:08.451Z,20.13
2023-04-10T23:03:35.961Z,18.58
2023-04-10T23:06:03.057Z,18.48
2023-04-10T23:08:30.040Z,18.63
2023-04-10T23:10:57.195Z,18.08
2023-04-10T23:13:24.340Z,18.98
2023-04-10T23:15:55.180Z,18.35
2023-04-10T23:18:22.538Z,18.95
2023-04-10T23:20:51.164Z,18.77
2023-04-10T23:23:18.627Z,18.27
2023-04-10T23:25:45.709Z,19.33
2023-04-10T23:28:12.719Z,19.00
2023-04-10T23:30:40.039Z,20.45
2023-04-10T23:33:07.225Z,18.50
2023-04-10T23:38:14.111Z,18.25
2023-04-10T23:40:41.097Z,17.08
2023-04-10T23:43:08.132Z,19.23
2023-04-10T23:45:35.092Z,19.02
2023-04-10T23:48:02.246Z,17.75
2023-04-10T23:50:29.304Z,17.45
2023-04-10T23:52:56.473Z,18.33
2023-04-10T23:55:23.689Z,18.40
2023-04-10T23:57:50.782Z,18.80
